createdAt,value
2022-09-07T00:25:44.949Z,17.63
2022-09-07T00:55:44.968Z,17.44
2022-09-07T01:25:44.976Z,17.19
2022-09-07T01:55:44.976Z,16.88
2022-09-07T02:25:44.982Z,16.56
2022-09-07T02:55:44.986Z,16.56
2022-09-07T03:25:44.999Z,16.19
2022-09-07T03:55:45.036Z,15.88
2022-09-07T04:25:45.018Z,15.81
2022-09-07T04:55:45.019Z,16.13
2022-09-07T05:25:45.028Z,16.06
2022-09-07T05:55:45.022Z,16.56
2022-09-07T06:25:45.022Z,17.88
2022-09-07T06:55:45.034Z,18.5
2022-09-07T07:25:45.064Z,18.94
2022-09-07T07:55:45.141Z,19.31
2022-09-07T08:25:45.055Z,20.31
2022-09-07T08:55:45.063Z,21.38
2022-09-07T09:25:45.077Z,22.25
2022-09-07T09:55:45.068Z,23.06
2022-09-07T10:25:45.065Z,24.94
2022-09-07T10:55:45.064Z,24.88
2022-09-07T11:25:46.627Z,25.13
2022-09-07T11:55:45.087Z,26.25
2022-09-07T12:25:45.122Z,28
2022-09-07T13:25:45.099Z,28.19
2022-09-07T13:55:45.106Z,28.56
2022-09-07T14:26:15.943Z,27.5
2022-09-07T14:55:45.137Z,28.25
2022-09-07T15:25:50.283Z,28.13
2022-09-07T15:55:45.141Z,27.88
2022-09-07T16:25:45.132Z,27.31
2022-09-07T16:55:45.133Z,26.63
2022-09-07T17:25:45.126Z,25.75
2022-09-07T17:55:45.136Z,24.75
2022-09-07T18:25:45.132Z,23.63
2022-09-07T18:55:45.156Z,22.75
2022-09-07T19:25:45.163Z,21.94
2022-09-07T19:55:45.186Z,21.06
2022-09-07T20:25:45.184Z,20.44
2022-09-07T20:55:45.190Z,20.06
2022-09-07T21:25:45.180Z,20.06
2022-09-07T21:55:45.195Z,19.75
2022-09-07T22:25:45.200Z,19.31
2022-09-07T22:55:45.188Z,18.94
2022-09-07T23:25:45.206Z,19.25
2022-09-07T23:55:45.200Z,18.94
